Towaoc, Colorado
Current Conditions -  °F | °C
As of 4:53 AM on Friday 31 Oct 2014 (Local Time) from KCEZ Reporting Station
Clear Clear  
Wind Chill: 36°   Ceiling: Unl
Heat Index: 36°   Visibility: 10mi
Dew Point: 23°   Wind: 0mph
Humidity: 59%   Direction: NA
Pressure: 30.27"   Gusts: NA
Location:  37.2°N, 108.73°W
Report Text: KCEZ 311053Z AUTO 00000KT 10SM CLR 02/M05 A3027 RMK AO2 SLP211 T00221050
Loading
Personal Weather Stations






























Interactive Weather Map
Tropical Storm Tracking
New forecast layout! Learn more

10-Day Weather Forecast

Advertisements
Track Severe Weather on mobile